createdAt,value
2022-12-01T00:01:31.790Z,17.57
2022-12-01T00:03:59.629Z,17.10
2022-12-01T00:06:27.787Z,16.80
2022-12-01T00:09:18.003Z,19.17
2022-12-01T00:11:47.397Z,16.63
2022-12-01T00:14:16.978Z,17.27
2022-12-01T00:16:45.328Z,16.57
2022-12-01T00:19:13.235Z,17.57
2022-12-01T00:21:41.007Z,17.93
2022-12-01T00:24:10.460Z,16.93
2022-12-01T00:26:39.151Z,17.67
2022-12-01T00:29:07.064Z,16.93
2022-12-01T00:31:36.630Z,17.50
2022-12-01T00:34:08.273Z,16.77
2022-12-01T00:36:39.040Z,16.97
2022-12-01T00:39:06.827Z,17.60
2022-12-01T00:41:34.914Z,18.30
2022-12-01T00:44:02.676Z,17.03
2022-12-01T00:46:30.497Z,17.80
2022-12-01T00:48:59.916Z,18.90
2022-12-01T00:51:27.945Z,16.30
2022-12-01T00:53:55.748Z,17.13
2022-12-01T00:56:23.701Z,17.33
2022-12-01T00:58:51.494Z,17.47
2022-12-01T01:01:20.669Z,19.07
2022-12-01T01:03:48.620Z,17.63
2022-12-01T01:06:17.859Z,17.90
2022-12-01T01:08:46.012Z,17.77
2022-12-01T01:11:13.875Z,17.73
2022-12-01T01:13:41.650Z,16.27
2022-12-01T01:16:15.436Z,17.93
2022-12-01T01:18:43.757Z,18.43
2022-12-01T01:21:15.043Z,17.40
2022-12-01T01:23:44.288Z,17.33
2022-12-01T01:26:13.773Z,18.03
2022-12-01T01:28:42.229Z,18.67
2022-12-01T01:31:12.293Z,17.67
2022-12-01T01:33:40.675Z,15.20
2022-12-01T01:36:08.856Z,18.23
2022-12-01T01:38:37.219Z,15.83
2022-12-01T01:41:07.410Z,17.20
2022-12-01T01:43:44.047Z,17.40
2022-12-01T01:46:14.004Z,16.43
2022-12-01T01:48:44.724Z,17.50
2022-12-01T01:51:14.455Z,16.90
2022-12-01T01:53:44.589Z,17.13
2022-12-01T01:56:13.855Z,15.93
2022-12-01T01:58:42.925Z,16.60
2022-12-01T02:01:10.753Z,18.00
2022-12-01T02:03:40.964Z,18.30
2022-12-01T02:06:10.605Z,17.83
2022-12-01T02:08:38.926Z,18.00
2022-12-01T02:11:22.566Z,18.33
2022-12-01T02:14:00.348Z,16.17
2022-12-01T02:16:35.071Z,17.50
2022-12-01T02:19:26.430Z,17.37
2022-12-01T02:22:06.428Z,16.53
2022-12-01T02:25:00.279Z,19.00
2022-12-01T02:27:49.144Z,17.60
2022-12-01T02:30:20.558Z,17.67
2022-12-01T02:33:03.501Z,16.33
2022-12-01T02:35:37.659Z,18.97
2022-12-01T02:38:15.761Z,17.63
2022-12-01T02:40:48.010Z,17.77
2022-12-01T02:43:30.386Z,19.17
2022-12-01T02:46:05.319Z,15.90
2022-12-01T02:48:36.651Z,17.33
2022-12-01T02:51:10.506Z,17.60
2022-12-01T02:53:38.400Z,16.87
2022-12-01T02:56:08.467Z,16.80
2022-12-01T02:58:36.281Z,16.30
2022-12-01T03:01:37.893Z,17.70
2022-12-01T03:04:29.542Z,15.37
2022-12-01T03:07:05.528Z,14.93
2022-12-01T03:09:42.303Z,15.20
2022-12-01T03:12:20.959Z,14.57
2022-12-01T03:14:56.868Z,14.33
2022-12-01T03:17:31.908Z,14.90
2022-12-01T03:20:08.730Z,13.93
2022-12-01T03:22:43.077Z,14.80
2022-12-01T03:25:13.395Z,13.47
2022-12-01T03:28:13.558Z,14.50
2022-12-01T03:30:36.887Z,12.77
2022-12-01T03:33:09.986Z,13.17
2022-12-01T03:35:43.990Z,13.07
2022-12-01T03:38:16.842Z,13.90
2022-12-01T03:40:48.192Z,12.83
2022-12-01T03:43:20.766Z,12.97
2022-12-01T03:45:56.415Z,12.40
2022-12-01T03:48:25.258Z,12.97
2022-12-01T03:51:04.248Z,12.97
2022-12-01T03:53:38.126Z,12.30
2022-12-01T03:56:09.038Z,12.07
2022-12-01T03:58:41.290Z,11.93
2022-12-01T04:01:10.299Z,13.47
2022-12-01T04:03:38.118Z,12.87
2022-12-01T04:06:07.984Z,12.43
2022-12-01T04:08:37.696Z,14.67
2022-12-01T04:11:32.155Z,13.33
2022-12-01T04:13:59.402Z,14.17
2022-12-01T04:16:27.426Z,13.33
2022-12-01T04:18:55.311Z,14.60
2022-12-01T04:21:24.505Z,14.00
2022-12-01T04:24:01.627Z,15.93
2022-12-01T04:26:33.202Z,14.33
2022-12-01T04:29:01.094Z,15.17
2022-12-01T04:31:29.400Z,14.43
2022-12-01T04:33:57.819Z,15.47
2022-12-01T04:36:28.273Z,15.07
2022-12-01T04:38:56.081Z,12.33
2022-12-01T04:41:24.000Z,15.30
2022-12-01T04:43:54.045Z,15.97
2022-12-01T04:46:22.231Z,15.07
2022-12-01T04:48:50.066Z,13.80
2022-12-01T04:51:17.981Z,14.43
2022-12-01T04:53:47.204Z,15.57
2022-12-01T04:56:16.461Z,15.87
2022-12-01T04:58:44.391Z,14.07
2022-12-01T05:01:13.908Z,14.70
2022-12-01T05:03:43.691Z,14.50
2022-12-01T05:06:13.390Z,16.00
2022-12-01T05:08:41.694Z,15.50
2022-12-01T05:11:12.796Z,15.33
2022-12-01T05:13:41.834Z,15.97
2022-12-01T05:16:11.559Z,15.83
2022-12-01T05:18:39.753Z,15.80
2022-12-01T05:21:08.786Z,15.77
2022-12-01T05:23:38.565Z,17.47
2022-12-01T05:26:08.378Z,15.37
2022-12-01T05:28:38.656Z,15.77
2022-12-01T05:31:06.821Z,14.77
2022-12-01T05:33:34.787Z,14.67
2022-12-01T05:36:02.817Z,13.47
2022-12-01T05:38:30.811Z,14.77
2022-12-01T05:40:58.594Z,14.87
2022-12-01T05:43:29.292Z,14.83
2022-12-01T05:45:59.753Z,12.00
2022-12-01T05:48:27.837Z,14.37
2022-12-01T05:50:55.658Z,14.47
2022-12-01T05:53:23.624Z,14.43
2022-12-01T05:55:53.708Z,15.17
2022-12-01T05:58:21.779Z,14.43
2022-12-01T06:00:49.595Z,13.30
2022-12-01T06:03:18.983Z,14.53
2022-12-01T06:05:46.852Z,13.33
2022-12-01T06:08:14.699Z,13.50
2022-12-01T06:10:42.737Z,14.17
2022-12-01T06:13:11.242Z,12.87
2022-12-01T06:15:39.176Z,13.83
2022-12-01T06:18:07.086Z,14.93
2022-12-01T06:20:36.487Z,15.07
2022-12-01T06:23:04.642Z,15.73
2022-12-01T06:25:32.486Z,14.07
2022-12-01T06:28:00.576Z,14.93
2022-12-01T06:30:28.409Z,14.77
2022-12-01T06:32:56.247Z,15.20
2022-12-01T06:35:24.102Z,14.57
2022-12-01T06:37:54.229Z,14.53
2022-12-01T06:40:22.422Z,15.47
2022-12-01T06:42:50.232Z,15.63
2022-12-01T06:45:18.709Z,15.50
2022-12-01T06:47:48.229Z,15.87
2022-12-01T06:50:16.232Z,16.33
2022-12-01T06:52:44.018Z,14.27
2022-12-01T06:55:13.449Z,16.83
2022-12-01T06:57:41.682Z,14.87
2022-12-01T07:00:12.595Z,13.83
2022-12-01T07:02:40.881Z,14.23
2022-12-01T07:05:09.586Z,15.60
2022-12-01T07:07:38.666Z,14.93
2022-12-01T07:10:07.864Z,14.73
2022-12-01T07:12:37.268Z,16.27
2022-12-01T07:15:06.160Z,14.97
2022-12-01T07:17:34.467Z,15.37
2022-12-01T07:20:02.282Z,15.53
2022-12-01T07:22:32.811Z,16.00
2022-12-01T07:25:00.950Z,14.80
2022-12-01T07:27:31.162Z,15.53
2022-12-01T07:30:00.428Z,16.87
2022-12-01T07:32:28.255Z,15.87
2022-12-01T07:34:56.135Z,16.27
2022-12-01T07:37:23.912Z,17.93
2022-12-01T07:39:51.937Z,16.57
2022-12-01T07:42:19.847Z,14.50
2022-12-01T07:44:48.005Z,16.93
2022-12-01T07:47:17.502Z,15.67
2022-12-01T07:49:45.374Z,15.93
2022-12-01T07:52:13.188Z,15.90
2022-12-01T07:54:41.033Z,16.67
2022-12-01T07:57:08.857Z,16.23
2022-12-01T07:59:36.706Z,16.67
2022-12-01T08:02:04.708Z,16.63
2022-12-01T08:04:34.705Z,18.13
2022-12-01T08:07:02.638Z,16.53
2022-12-01T08:09:30.906Z,18.40
2022-12-01T08:11:58.711Z,16.40
2022-12-01T08:14:26.567Z,16.43
2022-12-01T08:16:54.471Z,17.77
2022-12-01T08:19:22.336Z,17.00
2022-12-01T08:21:51.508Z,15.67
2022-12-01T08:24:19.654Z,18.53
2022-12-01T08:26:47.509Z,14.53
2022-12-01T08:29:19.959Z,16.43
2022-12-01T08:31:49.031Z,14.83
2022-12-01T08:34:17.142Z,16.03
2022-12-01T08:36:45.269Z,14.30
2022-12-01T08:39:14.481Z,15.43
2022-12-01T08:41:42.503Z,15.83
2022-12-01T08:44:11.433Z,15.17
2022-12-01T08:46:39.510Z,14.60
2022-12-01T08:49:07.931Z,15.77
2022-12-01T08:51:36.410Z,14.43
2022-12-01T08:54:04.737Z,15.27
2022-12-01T08:56:36.038Z,15.90
2022-12-01T08:59:03.922Z,14.40
2022-12-01T09:01:32.995Z,14.90
2022-12-01T09:04:08.790Z,11.57
2022-12-01T09:06:40.569Z,14.60
2022-12-01T09:09:08.749Z,14.73
2022-12-01T09:11:38.347Z,14.60
2022-12-01T09:14:06.188Z,13.57
2022-12-01T09:16:34.262Z,14.07
2022-12-01T09:19:02.597Z,14.03
2022-12-01T09:21:34.920Z,14.90
2022-12-01T09:24:03.647Z,13.47
2022-12-01T09:26:32.020Z,13.27
2022-12-01T09:29:02.735Z,12.17
2022-12-01T09:31:30.782Z,12.63
2022-12-01T09:34:00.756Z,11.43
2022-12-01T09:36:30.228Z,13.77
2022-12-01T09:38:58.337Z,13.57
2022-12-01T09:41:31.198Z,12.87
2022-12-01T09:44:10.607Z,12.50
2022-12-01T09:46:43.577Z,12.50
2022-12-01T09:49:18.765Z,13.20
2022-12-01T09:51:47.155Z,13.47
2022-12-01T09:54:15.941Z,13.40
2022-12-01T09:56:49.412Z,14.43
2022-12-01T09:59:22.632Z,14.97
2022-12-01T10:01:55.194Z,15.30
2022-12-01T10:04:30.185Z,15.20
2022-12-01T10:07:02.796Z,14.60
2022-12-01T10:09:37.590Z,15.20
2022-12-01T10:12:15.450Z,14.80
2022-12-01T10:14:47.108Z,15.07
2022-12-01T10:17:30.622Z,16.40
2022-12-01T10:20:05.001Z,15.70
2022-12-01T10:23:00.478Z,15.10
2022-12-01T10:25:32.973Z,15.27
2022-12-01T10:28:12.578Z,16.77
2022-12-01T10:30:51.428Z,17.07
2022-12-01T10:33:24.675Z,16.97
2022-12-01T10:35:53.592Z,16.80
2022-12-01T10:38:27.502Z,17.60
2022-12-01T10:40:58.559Z,18.43
2022-12-01T10:43:33.665Z,18.23
2022-12-01T10:46:11.950Z,18.87
2022-12-01T10:48:54.219Z,18.60
2022-12-01T10:51:22.717Z,19.37
2022-12-01T10:53:51.281Z,19.53
2022-12-01T10:56:21.519Z,17.33
2022-12-01T10:58:53.079Z,17.43
2022-12-01T11:01:25.797Z,16.80
2022-12-01T11:03:57.030Z,17.07
2022-12-01T11:06:27.916Z,15.80
2022-12-01T11:08:58.915Z,17.03
2022-12-01T11:11:33.603Z,15.00
2022-12-01T11:14:04.514Z,13.60
2022-12-01T11:16:42.394Z,13.90
2022-12-01T11:19:26.627Z,12.63
2022-12-01T11:21:56.864Z,13.53
2022-12-01T11:24:30.861Z,13.27
2022-12-01T11:27:00.073Z,13.33
2022-12-01T11:29:35.516Z,13.00
2022-12-01T11:32:17.180Z,15.20
2022-12-01T11:34:51.522Z,15.13
2022-12-01T11:37:22.435Z,16.07
2022-12-01T11:39:53.017Z,16.67
2022-12-01T11:42:27.073Z,16.80
2022-12-01T11:44:58.217Z,17.50
2022-12-01T11:47:28.900Z,18.57
2022-12-01T11:49:58.645Z,21.00
2022-12-01T11:52:30.131Z,21.07
2022-12-01T11:55:03.268Z,20.00
2022-12-01T11:57:36.243Z,19.50
2022-12-01T12:00:13.532Z,18.77
2022-12-01T12:02:51.062Z,20.83
2022-12-01T12:05:40.796Z,20.87
2022-12-01T12:08:18.208Z,21.27
2022-12-01T12:10:55.774Z,20.67
2022-12-01T12:13:42.314Z,20.27
2022-12-01T12:16:20.028Z,20.53
2022-12-01T12:19:02.879Z,19.17
2022-12-01T12:21:34.738Z,20.07
2022-12-01T12:24:18.822Z,19.20
2022-12-01T12:26:53.866Z,19.30
2022-12-01T12:29:34.482Z,18.80
2022-12-01T12:32:19.722Z,20.27
2022-12-01T12:34:57.193Z,20.13
2022-12-01T12:37:36.145Z,20.43
2022-12-01T12:40:37.604Z,19.83
2022-12-01T12:43:21.093Z,20.40
2022-12-01T12:46:06.227Z,19.10
2022-12-01T12:49:31.908Z,19.73
2022-12-01T12:51:57.228Z,18.43
2022-12-01T12:54:31.481Z,18.47
2022-12-01T12:57:04.013Z,18.83
2022-12-01T12:59:40.756Z,17.50
2022-12-01T13:02:14.003Z,18.97
2022-12-01T13:04:53.257Z,18.37
2022-12-01T13:07:33.990Z,18.40
2022-12-01T13:10:11.319Z,19.03
2022-12-01T13:12:44.629Z,19.43
2022-12-01T13:15:17.407Z,19.63
2022-12-01T13:17:48.313Z,20.10
2022-12-01T13:20:18.339Z,18.70
2022-12-01T13:22:49.247Z,19.67
2022-12-01T13:25:26.871Z,18.57
2022-12-01T13:27:56.542Z,19.80
2022-12-01T13:30:26.476Z,20.63
2022-12-01T13:33:01.243Z,19.90
2022-12-01T13:35:33.052Z,19.83
2022-12-01T13:38:26.084Z,19.90
2022-12-01T13:41:25.140Z,17.70
2022-12-01T13:44:00.003Z,19.43
2022-12-01T13:46:30.662Z,20.20
2022-12-01T13:49:00.864Z,20.00
2022-12-01T13:51:48.939Z,20.23
2022-12-01T13:54:31.432Z,20.97
2022-12-01T13:57:04.747Z,21.03
2022-12-01T13:59:58.055Z,22.03
2022-12-01T14:02:27.440Z,22.73
2022-12-01T14:04:55.709Z,21.87
2022-12-01T14:07:44.391Z,22.90
2022-12-01T14:10:25.602Z,22.20
2022-12-01T14:12:56.923Z,21.67
2022-12-01T14:15:40.340Z,22.50
2022-12-01T14:18:23.147Z,24.30
2022-12-01T14:20:51.458Z,23.30
2022-12-01T14:23:29.277Z,23.60
2022-12-01T14:26:10.797Z,21.23
2022-12-01T14:29:21.132Z,21.53
2022-12-01T14:32:23.381Z,23.37
2022-12-01T14:34:58.596Z,22.60
2022-12-01T14:37:34.508Z,22.47
2022-12-01T14:40:07.897Z,22.67
2022-12-01T14:43:00.355Z,22.90
2022-12-01T14:45:32.784Z,21.93
2022-12-01T14:48:04.362Z,23.60
2022-12-01T14:50:46.391Z,23.37
2022-12-01T14:53:24.646Z,23.07
2022-12-01T14:55:57.508Z,22.60
2022-12-01T14:58:28.941Z,22.00
2022-12-01T15:01:07.677Z,25.10
2022-12-01T15:03:42.671Z,23.93
2022-12-01T15:06:11.540Z,24.17
2022-12-01T15:08:45.926Z,24.20
2022-12-01T15:11:25.336Z,23.00
2022-12-01T15:13:56.177Z,24.20
2022-12-01T15:16:26.367Z,23.67
2022-12-01T15:18:54.774Z,24.13
2022-12-01T15:21:27.231Z,25.47
2022-12-01T15:23:57.969Z,24.33
2022-12-01T15:26:28.028Z,24.67
2022-12-01T15:29:15.570Z,24.50
2022-12-01T15:31:44.972Z,24.33
2022-12-01T15:34:17.135Z,24.27
2022-12-01T15:36:46.022Z,25.27
2022-12-01T15:39:17.713Z,25.80
2022-12-01T15:41:48.351Z,25.73
2022-12-01T15:44:23.953Z,23.80
2022-12-01T15:46:51.826Z,25.47
2022-12-01T15:49:21.953Z,22.80
2022-12-01T15:51:51.384Z,21.70
2022-12-01T15:54:22.408Z,24.63
2022-12-01T15:56:54.288Z,25.30
2022-12-01T15:59:38.472Z,24.37
2022-12-01T16:02:24.518Z,24.23
2022-12-01T16:05:02.627Z,25.10
2022-12-01T16:08:11.051Z,24.03
2022-12-01T16:10:31.458Z,22.10
2022-12-01T16:13:45.041Z,24.07
2022-12-01T16:16:39.183Z,24.50
2022-12-01T16:19:27.187Z,24.23
2022-12-01T16:21:59.128Z,25.23
2022-12-01T16:24:31.761Z,24.33
2022-12-01T16:27:04.931Z,24.90
2022-12-01T16:29:36.455Z,25.50
2022-12-01T16:32:20.649Z,25.40
2022-12-01T16:34:50.062Z,24.23
2022-12-01T16:37:18.350Z,24.97
2022-12-01T16:39:46.527Z,25.87
2022-12-01T16:42:20.566Z,24.90
2022-12-01T16:44:49.715Z,25.60
2022-12-01T16:47:21.085Z,26.47
2022-12-01T16:49:49.814Z,26.03
2022-12-01T16:55:25.280Z,26.90
2022-12-01T16:57:53.445Z,26.33
2022-12-01T17:00:22.094Z,24.83
2022-12-01T17:02:52.679Z,25.47
2022-12-01T17:05:21.089Z,24.67
2022-12-01T17:07:49.120Z,24.57
2022-12-01T17:10:17.881Z,26.57
2022-12-01T17:12:45.819Z,25.80
2022-12-01T17:15:14.059Z,24.97
2022-12-01T17:17:42.048Z,24.20
2022-12-01T17:20:12.257Z,25.77
2022-12-01T17:22:40.350Z,25.97
2022-12-01T17:25:10.610Z,25.93
2022-12-01T17:27:39.529Z,25.40
2022-12-01T17:30:09.251Z,26.53
2022-12-01T17:32:38.043Z,25.17
2022-12-01T17:35:06.830Z,25.83
2022-12-01T17:37:39.035Z,26.03
2022-12-01T17:40:09.606Z,25.63
2022-12-01T17:42:37.760Z,25.03
2022-12-01T17:45:06.754Z,25.93
2022-12-01T17:47:34.663Z,26.13
2022-12-01T17:50:02.734Z,26.43
2022-12-01T17:52:30.931Z,26.80
2022-12-01T17:55:00.296Z,25.07
2022-12-01T17:57:31.136Z,24.27
2022-12-01T17:59:59.039Z,26.40
2022-12-01T18:02:27.011Z,27.70
2022-12-01T18:04:55.365Z,25.80
2022-12-01T18:07:23.328Z,25.60
2022-12-01T18:09:51.261Z,25.67
2022-12-01T18:12:20.590Z,24.57
2022-12-01T18:14:48.940Z,25.80
2022-12-01T18:17:17.114Z,25.73
2022-12-01T18:19:45.094Z,25.13
2022-12-01T18:22:13.166Z,25.03
2022-12-01T18:24:41.019Z,25.10
2022-12-01T18:27:09.052Z,24.50
2022-12-01T18:29:38.600Z,24.37
2022-12-01T18:32:06.758Z,24.60
2022-12-01T18:34:37.761Z,24.37
2022-12-01T18:37:06.016Z,23.40
2022-12-01T18:39:34.059Z,23.80
2022-12-01T18:42:02.672Z,23.20
2022-12-01T18:44:31.018Z,22.17
2022-12-01T18:47:02.634Z,22.83
2022-12-01T18:49:30.933Z,22.23
2022-12-01T18:51:59.844Z,22.93
2022-12-01T18:54:27.699Z,23.80
2022-12-01T18:56:58.909Z,23.60
2022-12-01T18:59:27.021Z,20.63
2022-12-01T19:01:55.101Z,21.27
2022-12-01T19:04:24.327Z,19.67
2022-12-01T19:06:52.208Z,19.53
2022-12-01T19:09:20.147Z,20.50
2022-12-01T19:11:48.327Z,18.70
2022-12-01T19:14:18.476Z,17.87
2022-12-01T19:16:46.568Z,18.60
2022-12-01T19:19:14.543Z,18.27
2022-12-01T19:21:45.212Z,18.17
2022-12-01T19:24:13.144Z,19.10
2022-12-01T19:26:41.011Z,19.67
2022-12-01T19:29:08.972Z,18.50
2022-12-01T19:31:37.260Z,19.50
2022-12-01T19:34:05.344Z,18.83
2022-12-01T19:36:33.230Z,18.80
2022-12-01T19:39:04.453Z,20.33
2022-12-01T19:41:35.302Z,20.33
2022-12-01T19:44:03.232Z,19.27
2022-12-01T19:46:31.197Z,20.77
2022-12-01T19:49:01.324Z,19.03
2022-12-01T19:51:32.478Z,20.03
2022-12-01T19:54:00.394Z,20.43
2022-12-01T19:56:30.258Z,18.90
2022-12-01T19:58:58.573Z,20.93
2022-12-01T20:01:27.415Z,19.27
2022-12-01T20:03:55.904Z,21.93
2022-12-01T20:06:25.569Z,19.27
2022-12-01T20:08:54.004Z,17.57
2022-12-01T20:11:21.828Z,18.50
2022-12-01T20:13:51.550Z,20.60
2022-12-01T20:16:21.389Z,19.40
2022-12-01T20:18:49.948Z,19.67
2022-12-01T20:21:20.571Z,18.40
2022-12-01T20:23:50.802Z,19.90
2022-12-01T20:26:20.343Z,18.60
2022-12-01T20:28:51.378Z,18.33
2022-12-01T20:31:21.593Z,18.10
2022-12-01T20:33:50.531Z,18.50
2022-12-01T20:36:18.650Z,18.70
2022-12-01T20:38:46.733Z,19.10
2022-12-01T20:41:14.935Z,18.40
2022-12-01T20:43:42.811Z,17.63
2022-12-01T20:46:12.453Z,17.70
2022-12-01T20:48:40.671Z,17.57
2022-12-01T20:51:10.207Z,17.63
2022-12-01T20:53:38.086Z,18.63
2022-12-01T20:56:08.276Z,16.50
2022-12-01T20:58:37.987Z,17.63
2022-12-01T21:01:09.362Z,17.70
2022-12-01T21:03:40.878Z,17.73
2022-12-01T21:06:09.618Z,16.47
2022-12-01T21:08:38.549Z,16.40
2022-12-01T21:11:07.913Z,16.43
2022-12-01T21:13:42.306Z,15.63
2022-12-01T21:16:21.326Z,15.77
2022-12-01T21:18:52.937Z,15.97
2022-12-01T21:21:27.491Z,17.40
2022-12-01T21:24:09.776Z,16.03
2022-12-01T21:26:38.143Z,15.90
2022-12-01T21:29:18.464Z,17.03
2022-12-01T21:31:46.452Z,16.53
2022-12-01T21:34:19.624Z,16.17
2022-12-01T21:36:48.762Z,16.47
2022-12-01T21:39:18.893Z,16.17
2022-12-01T21:41:46.801Z,16.30
2022-12-01T21:44:17.403Z,16.67
2022-12-01T21:46:45.754Z,17.83
2022-12-01T21:49:18.648Z,16.07
2022-12-01T21:51:48.033Z,16.93
2022-12-01T21:54:19.511Z,17.10
2022-12-01T21:56:48.997Z,17.60
2022-12-01T21:59:20.729Z,16.37
2022-12-01T22:01:50.432Z,16.10
2022-12-01T22:04:22.028Z,16.97
2022-12-01T22:06:52.446Z,16.43
2022-12-01T22:09:24.598Z,17.43
2022-12-01T22:11:54.931Z,17.00
2022-12-01T22:14:25.181Z,16.87
2022-12-01T22:16:57.291Z,17.63
2022-12-01T22:19:30.666Z,16.93
2022-12-01T22:22:02.354Z,17.03
2022-12-01T22:24:40.954Z,18.57
2022-12-01T22:27:25.860Z,17.50
2022-12-01T22:29:58.612Z,17.43
2022-12-01T22:32:55.223Z,17.23
2022-12-01T22:35:27.975Z,17.27
2022-12-01T22:38:00.714Z,18.07
2022-12-01T22:40:43.971Z,17.43
2022-12-01T22:43:25.339Z,18.00
2022-12-01T22:46:03.848Z,18.77
2022-12-01T22:48:36.544Z,17.67
2022-12-01T22:51:22.062Z,17.53
2022-12-01T22:53:50.672Z,18.13
2022-12-01T22:56:28.173Z,17.87
2022-12-01T22:58:57.270Z,19.93
2022-12-01T23:01:28.764Z,19.87
2022-12-01T23:04:13.056Z,18.67
2022-12-01T23:07:02.702Z,19.27
2022-12-01T23:09:36.022Z,18.57
2022-12-01T23:12:17.904Z,19.70
2022-12-01T23:14:47.867Z,19.20
2022-12-01T23:17:20.499Z,20.10
2022-12-01T23:19:49.047Z,18.90
2022-12-01T23:22:18.933Z,18.53
2022-12-01T23:24:46.880Z,18.10
2022-12-01T23:27:17.843Z,20.47
2022-12-01T23:29:45.615Z,20.10
2022-12-01T23:32:14.030Z,18.97
2022-12-01T23:34:41.916Z,19.80
2022-12-01T23:37:29.618Z,20.10
2022-12-01T23:39:57.507Z,20.57
2022-12-01T23:42:25.305Z,20.47
2022-12-01T23:44:53.637Z,18.83
2022-12-01T23:47:25.667Z,20.07
2022-12-01T23:49:59.132Z,19.83
2022-12-01T23:52:33.293Z,19.67
2022-12-01T23:55:01.224Z,20.17
2022-12-01T23:57:29.275Z,21.43
